createdAt,value
2022-09-15T00:01:01.041Z,9.38
2022-09-15T00:02:02.996Z,8.55
2022-09-15T00:03:04.708Z,8.37
2022-09-15T00:04:06.344Z,8.70
2022-09-15T00:05:08.311Z,11.43
2022-09-15T00:06:10.001Z,9.02
2022-09-15T00:07:11.550Z,8.65
2022-09-15T00:08:13.357Z,10.77
2022-09-15T00:09:14.948Z,10.40
2022-09-15T00:10:17.547Z,10.00
2022-09-15T00:11:27.153Z,9.55
2022-09-15T00:12:28.791Z,10.77
2022-09-15T00:13:30.354Z,8.67
2022-09-15T00:14:31.926Z,9.00
2022-09-15T00:15:33.528Z,10.55
2022-09-15T00:16:35.226Z,10.10
2022-09-15T00:17:37.023Z,8.95
2022-09-15T00:18:39.586Z,7.57
2022-09-15T00:19:41.153Z,7.97
2022-09-15T00:20:43.551Z,9.23
2022-09-15T00:21:45.131Z,8.85
2022-09-15T00:22:47.596Z,7.85
2022-09-15T00:23:49.274Z,8.40
2022-09-15T00:24:50.860Z,11.43
2022-09-15T00:25:52.933Z,9.60
2022-09-15T00:26:54.562Z,9.90
2022-09-15T00:27:56.710Z,8.45
2022-09-15T00:28:58.938Z,12.88
2022-09-15T00:30:00.499Z,12.13
2022-09-15T00:31:08.029Z,9.43
2022-09-15T00:32:09.830Z,10.05
2022-09-15T00:33:12.045Z,11.07
2022-09-15T00:34:13.888Z,8.63
2022-09-15T00:35:15.583Z,9.20
2022-09-15T00:36:17.341Z,8.27
2022-09-15T00:37:19.263Z,10.75
2022-09-15T00:38:20.835Z,8.10
2022-09-15T00:39:22.413Z,7.50
2022-09-15T00:40:26.383Z,8.10
2022-09-15T00:41:28.106Z,9.90
2022-09-15T00:42:29.821Z,8.40
2022-09-15T00:43:46.710Z,10.18
2022-09-15T00:44:57.084Z,6.47
2022-09-15T00:45:58.678Z,6.53
2022-09-15T00:47:18.335Z,9.30
2022-09-15T00:48:21.691Z,7.40
2022-09-15T00:49:34.342Z,8.43
2022-09-15T00:50:36.370Z,9.88
2022-09-15T00:51:56.236Z,7.78
2022-09-15T00:52:59.916Z,6.30
2022-09-15T00:54:03.375Z,6.90
2022-09-15T00:55:23.166Z,8.07
2022-09-15T00:56:24.880Z,9.50
2022-09-15T00:57:30.307Z,6.93
2022-09-15T00:58:37.622Z,6.75
2022-09-15T00:59:41.968Z,5.72
2022-09-15T01:00:47.819Z,8.48
2022-09-15T01:01:50.429Z,5.15
2022-09-15T01:02:52.014Z,7.85
2022-09-15T01:03:53.963Z,4.65
2022-09-15T01:04:58.348Z,5.15
2022-09-15T01:06:05.791Z,6.00
2022-09-15T01:07:07.974Z,4.93
2022-09-15T01:08:14.614Z,4.95
2022-09-15T01:09:29.379Z,6.60
2022-09-15T01:10:34.139Z,6.00
2022-09-15T01:11:35.719Z,7.22
2022-09-15T01:12:37.312Z,4.28
2022-09-15T01:13:38.904Z,5.07
2022-09-15T01:14:40.566Z,5.97
2022-09-15T01:16:03.679Z,5.25
2022-09-15T01:17:14.480Z,4.53
2022-09-15T01:18:24.822Z,5.23
2022-09-15T01:20:01.464Z,7.22
2022-09-15T01:21:03.014Z,5.70
2022-09-15T01:22:33.895Z,4.85
2022-09-15T01:23:58.427Z,6.55
2022-09-15T01:25:20.600Z,5.30
2022-09-15T01:26:59.147Z,4.38
2022-09-15T01:28:06.663Z,4.18
2022-09-15T01:29:45.470Z,5.43
2022-09-15T01:30:51.065Z,4.25
2022-09-15T01:32:32.679Z,4.87
2022-09-15T01:33:37.721Z,4.13
2022-09-15T01:34:45.133Z,4.57
2022-09-15T01:36:02.864Z,6.10
2022-09-15T01:37:06.973Z,4.60
2022-09-15T01:38:35.967Z,4.72
2022-09-15T01:39:39.304Z,4.35
2022-09-15T01:40:47.380Z,5.18
2022-09-15T01:42:00.102Z,3.40
2022-09-15T01:43:01.938Z,5.25
2022-09-15T01:44:14.804Z,4.23
2022-09-15T01:45:22.105Z,3.83
2022-09-15T01:46:24.741Z,5.65
2022-09-15T01:47:26.372Z,5.18
2022-09-15T01:48:28.032Z,4.45
2022-09-15T01:49:31.548Z,4.55
2022-09-15T01:50:36.079Z,5.18
2022-09-15T01:51:37.719Z,5.97
2022-09-15T01:52:43.717Z,4.25
2022-09-15T01:53:46.106Z,4.30
2022-09-15T01:54:51.242Z,3.77
2022-09-15T01:55:56.515Z,5.72
2022-09-15T01:56:58.089Z,3.53
2022-09-15T01:57:59.679Z,5.45
2022-09-15T01:59:01.264Z,4.38
2022-09-15T02:00:03.837Z,4.25
2022-09-15T02:01:05.505Z,4.57
2022-09-15T02:02:16.652Z,4.43
2022-09-15T02:03:27.735Z,5.22
2022-09-15T02:04:33.854Z,3.95
2022-09-15T02:05:40.055Z,4.17
2022-09-15T02:07:04.171Z,3.90
2022-09-15T02:08:28.593Z,3.20
2022-09-15T02:09:36.543Z,4.72
2022-09-15T02:10:48.517Z,3.72
2022-09-15T02:11:58.971Z,4.82
2022-09-15T02:13:10.144Z,4.20
2022-09-15T02:14:32.372Z,4.80
2022-09-15T02:15:37.595Z,4.40
2022-09-15T02:16:41.440Z,4.63
2022-09-15T02:17:45.742Z,5.47
2022-09-15T02:18:51.277Z,4.28
2022-09-15T02:19:55.899Z,7.45
2022-09-15T02:21:00.832Z,3.50
2022-09-15T02:22:17.732Z,3.85
2022-09-15T02:23:31.479Z,4.65
2022-09-15T02:24:38.234Z,3.78
2022-09-15T02:25:45.111Z,4.18
2022-09-15T02:26:48.362Z,4.57
2022-09-15T02:27:51.153Z,3.75
2022-09-15T02:28:53.665Z,5.97
2022-09-15T02:29:57.428Z,4.80
2022-09-15T02:30:59.032Z,3.85
2022-09-15T02:32:06.854Z,3.88
2022-09-15T02:33:12.299Z,6.43
2022-09-15T02:34:22.159Z,3.50
2022-09-15T02:35:25.082Z,3.88
2022-09-15T02:36:27.058Z,5.72
2022-09-15T02:37:28.759Z,4.93
2022-09-15T02:38:33.423Z,5.10
2022-09-15T02:39:37.255Z,4.70
2022-09-15T02:40:43.322Z,4.30
2022-09-15T02:41:45.686Z,4.97
2022-09-15T02:42:55.886Z,4.50
2022-09-15T02:43:57.451Z,3.25
2022-09-15T02:44:59.848Z,4.97
2022-09-15T02:46:01.516Z,4.57
2022-09-15T02:47:03.926Z,5.45
2022-09-15T02:48:05.612Z,4.55
2022-09-15T02:49:07.759Z,5.20
2022-09-15T02:50:09.518Z,4.67
2022-09-15T02:51:11.163Z,3.50
2022-09-15T02:52:12.902Z,5.38
2022-09-15T02:53:14.495Z,5.70
2022-09-15T02:54:16.070Z,3.50
2022-09-15T02:55:17.752Z,4.63
2022-09-15T02:56:19.464Z,4.57
2022-09-15T02:57:21.149Z,3.85
2022-09-15T02:58:22.712Z,5.03
2022-09-15T02:59:24.355Z,4.38
2022-09-15T03:00:26.461Z,4.27
2022-09-15T03:01:34.892Z,5.53
2022-09-15T03:02:36.996Z,4.05
2022-09-15T03:03:42.775Z,4.03
2022-09-15T03:04:44.588Z,4.57
2022-09-15T03:05:46.189Z,4.43
2022-09-15T03:06:47.834Z,4.82
2022-09-15T03:07:49.572Z,6.82
2022-09-15T03:08:56.651Z,4.55
2022-09-15T03:09:58.604Z,5.18
2022-09-15T03:11:00.155Z,5.17
2022-09-15T03:12:01.939Z,3.92
2022-09-15T03:13:03.599Z,4.60
2022-09-15T03:14:06.132Z,3.63
2022-09-15T03:15:09.812Z,4.03
2022-09-15T03:16:12.519Z,4.65
2022-09-15T03:17:14.150Z,3.90
2022-09-15T03:18:15.779Z,8.40
2022-09-15T03:19:17.423Z,5.55
2022-09-15T03:20:25.952Z,3.80
2022-09-15T03:21:29.529Z,4.40
2022-09-15T03:22:31.297Z,4.15
2022-09-15T03:23:33.038Z,6.53
2022-09-15T03:24:34.575Z,6.00
2022-09-15T03:25:36.116Z,5.13
2022-09-15T03:26:37.763Z,5.32
2022-09-15T03:27:39.330Z,5.07
2022-09-15T03:28:41.017Z,9.50
2022-09-15T03:29:42.580Z,6.53
2022-09-15T03:30:44.279Z,4.35
2022-09-15T03:31:45.945Z,5.50
2022-09-15T03:32:48.766Z,8.18
2022-09-15T03:33:50.492Z,6.88
2022-09-15T03:34:55.263Z,5.65
2022-09-15T03:36:00.469Z,4.28
2022-09-15T03:37:02.040Z,5.18
2022-09-15T03:38:03.824Z,4.30
2022-09-15T03:39:05.421Z,4.55
2022-09-15T03:40:07.560Z,3.95
2022-09-15T03:41:11.149Z,5.65
2022-09-15T03:42:12.778Z,4.33
2022-09-15T03:43:18.546Z,3.92
2022-09-15T03:44:20.316Z,3.67
2022-09-15T03:45:21.963Z,4.75
2022-09-15T03:46:23.604Z,4.47
2022-09-15T03:47:25.155Z,4.60
2022-09-15T03:48:27.322Z,3.22
2022-09-15T03:49:29.154Z,4.97
2022-09-15T03:50:31.292Z,3.67
2022-09-15T03:51:32.839Z,9.27
2022-09-15T03:52:34.408Z,4.43
2022-09-15T03:53:36.288Z,4.68
2022-09-15T03:54:37.855Z,3.92
2022-09-15T03:55:39.480Z,5.20
2022-09-15T03:56:41.124Z,5.25
2022-09-15T03:57:42.686Z,5.07
2022-09-15T03:58:44.273Z,3.78
2022-09-15T03:59:45.849Z,5.18
2022-09-15T04:00:47.497Z,5.20
2022-09-15T04:01:49.244Z,4.80
2022-09-15T04:02:50.892Z,7.47
2022-09-15T04:03:52.467Z,6.88
2022-09-15T04:04:54.039Z,5.88
2022-09-15T04:05:55.578Z,5.55
2022-09-15T04:06:57.195Z,5.30
2022-09-15T04:07:58.807Z,5.35
2022-09-15T04:09:00.414Z,6.30
2022-09-15T04:10:02.514Z,4.70
2022-09-15T04:11:05.969Z,7.32
2022-09-15T04:12:07.637Z,5.78
2022-09-15T04:13:09.257Z,5.07
2022-09-15T04:14:10.848Z,4.43
2022-09-15T04:15:12.401Z,6.13
2022-09-15T04:16:16.054Z,5.53
2022-09-15T04:17:17.762Z,8.90
2022-09-15T04:18:19.346Z,4.35
2022-09-15T04:19:20.933Z,6.03
2022-09-15T04:20:22.516Z,7.88
2022-09-15T04:21:25.017Z,6.15
2022-09-15T04:22:27.733Z,6.72
2022-09-15T04:23:29.328Z,7.43
2022-09-15T04:24:30.897Z,4.70
2022-09-15T04:25:32.576Z,5.38
2022-09-15T04:26:35.363Z,7.25
2022-09-15T04:27:38.702Z,11.18
2022-09-15T04:28:40.325Z,5.70
2022-09-15T04:29:42.242Z,6.20
2022-09-15T04:30:44.025Z,5.25
2022-09-15T04:31:46.845Z,4.32
2022-09-15T04:32:50.036Z,12.43
2022-09-15T04:33:54.996Z,6.37
2022-09-15T04:34:56.582Z,9.70
2022-09-15T04:36:00.011Z,9.23
2022-09-15T04:37:02.620Z,8.68
2022-09-15T04:38:04.203Z,7.03
2022-09-15T04:39:06.773Z,7.72
2022-09-15T04:40:10.291Z,5.97
2022-09-15T04:41:12.421Z,7.75
2022-09-15T04:42:13.983Z,6.15
2022-09-15T04:43:15.555Z,9.50
2022-09-15T04:44:17.185Z,6.73
2022-09-15T04:45:18.769Z,8.52
2022-09-15T04:46:20.492Z,5.70
2022-09-15T04:47:22.136Z,6.38
2022-09-15T04:48:23.870Z,6.30
2022-09-15T04:49:25.501Z,6.18
2022-09-15T04:50:27.323Z,7.45
2022-09-15T04:51:29.070Z,9.57
2022-09-15T04:52:31.003Z,10.45
2022-09-15T04:53:32.705Z,6.88
2022-09-15T04:54:34.895Z,8.50
2022-09-15T04:55:36.657Z,7.63
2022-09-15T04:56:38.448Z,7.78
2022-09-15T04:57:40.033Z,7.00
2022-09-15T04:58:43.327Z,7.53
2022-09-15T04:59:44.940Z,7.50
2022-09-15T05:00:46.560Z,7.85
2022-09-15T05:01:48.327Z,6.05
2022-09-15T05:02:50.266Z,6.68
2022-09-15T05:03:52.151Z,8.90
2022-09-15T05:04:53.832Z,8.43
2022-09-15T05:05:55.390Z,9.13
2022-09-15T05:06:57.022Z,9.70
2022-09-15T05:08:00.910Z,7.38
2022-09-15T05:09:05.433Z,6.45
2022-09-15T05:10:10.818Z,7.97
2022-09-15T05:11:12.541Z,8.90
2022-09-15T05:12:14.336Z,7.20
2022-09-15T05:13:15.897Z,5.72
2022-09-15T05:14:17.578Z,7.07
2022-09-15T05:15:19.169Z,7.77
2022-09-15T05:16:22.743Z,8.45
2022-09-15T05:17:26.787Z,8.63
2022-09-15T05:18:28.626Z,6.55
2022-09-15T05:19:30.205Z,7.30
2022-09-15T05:20:31.779Z,7.82
2022-09-15T05:21:33.669Z,7.03
2022-09-15T05:22:39.511Z,7.78
2022-09-15T05:23:43.826Z,9.23
2022-09-15T05:24:46.131Z,5.60
2022-09-15T05:25:57.611Z,6.00
2022-09-15T05:26:59.173Z,8.55
2022-09-15T05:28:00.752Z,6.63
2022-09-15T05:29:02.400Z,8.00
2022-09-15T05:30:35.179Z,7.25
2022-09-15T05:31:31.272Z,7.93
2022-09-15T05:32:33.134Z,8.50
2022-09-15T05:33:34.722Z,7.82
2022-09-15T05:34:36.496Z,5.43
2022-09-15T05:35:38.090Z,8.63
2022-09-15T05:36:39.679Z,9.90
2022-09-15T05:37:41.277Z,7.47
2022-09-15T05:38:43.488Z,5.63
2022-09-15T05:39:45.901Z,7.18
2022-09-15T05:40:47.777Z,6.93
2022-09-15T05:41:49.495Z,10.75
2022-09-15T05:42:51.087Z,6.95
2022-09-15T05:43:53.436Z,6.57
2022-09-15T05:44:55.050Z,11.15
2022-09-15T05:45:57.871Z,6.72
2022-09-15T05:46:59.521Z,9.27
2022-09-15T05:48:01.289Z,9.45
2022-09-15T05:49:02.922Z,9.30
2022-09-15T05:50:04.709Z,9.75
2022-09-15T05:51:06.486Z,6.15
2022-09-15T05:52:08.415Z,8.45
2022-09-15T05:53:10.007Z,10.50
2022-09-15T05:54:12.181Z,5.55
2022-09-15T05:55:13.822Z,10.30
2022-09-15T05:56:16.102Z,9.32
2022-09-15T05:57:17.665Z,7.20
2022-09-15T05:58:19.675Z,6.75
2022-09-15T05:59:21.219Z,6.75
2022-09-15T06:00:22.789Z,11.60
2022-09-15T06:01:25.931Z,7.13
2022-09-15T06:02:27.579Z,9.13
2022-09-15T06:03:31.057Z,10.18
2022-09-15T06:04:34.232Z,7.40
2022-09-15T06:05:36.175Z,6.20
2022-09-15T06:06:37.758Z,7.15
2022-09-15T06:07:39.353Z,7.40
2022-09-15T06:08:44.489Z,6.53
2022-09-15T06:09:46.553Z,9.45
2022-09-15T06:10:48.242Z,6.03
2022-09-15T06:11:49.853Z,10.73
2022-09-15T06:12:54.775Z,15.13
2022-09-15T06:13:59.012Z,11.10
2022-09-15T06:15:00.618Z,8.07
2022-09-15T06:16:07.015Z,8.75
2022-09-15T06:17:08.671Z,6.82
2022-09-15T06:18:10.221Z,6.73
2022-09-15T06:19:11.796Z,9.07
2022-09-15T06:20:13.589Z,7.10
2022-09-15T06:21:19.657Z,7.10
2022-09-15T06:22:21.302Z,7.38
2022-09-15T06:23:22.848Z,5.70
2022-09-15T06:24:24.428Z,7.95
2022-09-15T06:25:26.140Z,6.45
2022-09-15T06:26:27.881Z,5.40
2022-09-15T06:27:29.442Z,9.50
2022-09-15T06:28:31.008Z,7.20
2022-09-15T06:29:32.618Z,5.05
2022-09-15T06:30:34.267Z,5.25
2022-09-15T06:31:36.030Z,7.80
2022-09-15T06:32:37.742Z,5.45
2022-09-15T06:35:08.787Z,6.70
2022-09-15T06:36:14.098Z,5.05
2022-09-15T06:37:15.992Z,4.63
2022-09-15T06:38:17.615Z,5.03
2022-09-15T06:39:19.371Z,10.03
2022-09-15T06:40:21.704Z,6.47
2022-09-15T06:41:23.487Z,6.97
2022-09-15T06:42:25.155Z,5.85
2022-09-15T06:43:26.758Z,5.07
2022-09-15T06:44:28.387Z,6.47
2022-09-15T06:45:30.341Z,5.97
2022-09-15T06:46:31.926Z,6.25
2022-09-15T06:47:34.240Z,5.20
2022-09-15T06:48:36.523Z,5.07
2022-09-15T06:49:38.102Z,7.17
2022-09-15T06:50:39.680Z,6.55
2022-09-15T06:51:42.145Z,11.77
2022-09-15T06:52:43.763Z,5.65
2022-09-15T06:53:45.608Z,8.27
2022-09-15T06:54:47.226Z,7.07
2022-09-15T06:55:48.866Z,5.18
2022-09-15T06:56:50.545Z,7.15
2022-09-15T06:57:52.172Z,5.18
2022-09-15T06:58:54.085Z,5.60
2022-09-15T06:59:55.757Z,8.03
2022-09-15T07:01:25.334Z,5.30
2022-09-15T07:02:26.969Z,5.65
2022-09-15T07:03:28.703Z,5.28
2022-09-15T07:04:30.435Z,5.13
2022-09-15T07:05:32.003Z,8.50
2022-09-15T07:06:33.955Z,5.10
2022-09-15T07:07:35.590Z,5.32
2022-09-15T07:08:37.164Z,5.70
2022-09-15T07:09:41.188Z,5.55
2022-09-15T07:10:44.940Z,8.10
2022-09-15T07:11:46.729Z,5.20
2022-09-15T07:12:48.302Z,5.47
2022-09-15T07:13:49.982Z,6.60
2022-09-15T07:14:51.822Z,6.18
2022-09-15T07:15:58.009Z,6.93
2022-09-15T07:16:59.601Z,6.65
2022-09-15T07:18:01.168Z,4.97
2022-09-15T07:19:03.810Z,5.78
2022-09-15T07:20:06.050Z,6.57
2022-09-15T07:21:09.428Z,6.77
2022-09-15T07:22:12.050Z,6.70
2022-09-15T07:23:13.848Z,6.30
2022-09-15T07:24:15.601Z,6.82
2022-09-15T07:25:17.210Z,7.78
2022-09-15T07:26:23.193Z,6.55
2022-09-15T07:27:26.940Z,6.40
2022-09-15T07:28:28.534Z,5.65
2022-09-15T07:29:30.174Z,6.93
2022-09-15T07:30:31.818Z,6.22
2022-09-15T07:31:34.281Z,5.23
2022-09-15T07:32:36.015Z,7.45
2022-09-15T07:33:37.729Z,4.43
2022-09-15T07:34:39.377Z,5.57
2022-09-15T07:35:42.447Z,9.77
2022-09-15T07:36:44.030Z,7.93
2022-09-15T07:37:45.795Z,6.93
2022-09-15T07:38:48.215Z,6.68
2022-09-15T07:39:50.261Z,7.28
2022-09-15T07:40:52.374Z,5.70
2022-09-15T07:41:54.024Z,7.53
2022-09-15T07:42:56.042Z,4.82
2022-09-15T07:43:58.537Z,6.10
2022-09-15T07:45:00.128Z,6.07
2022-09-15T07:46:01.970Z,5.28
2022-09-15T07:47:03.685Z,5.50
2022-09-15T07:48:05.400Z,7.28
2022-09-15T07:49:08.273Z,5.07
2022-09-15T07:50:09.956Z,4.63
2022-09-15T07:51:11.775Z,8.93
2022-09-15T07:52:13.373Z,6.50
2022-09-15T07:53:14.969Z,6.82
2022-09-15T07:54:21.081Z,7.40
2022-09-15T07:55:24.383Z,6.57
2022-09-15T07:56:26.046Z,5.25
2022-09-15T07:57:27.726Z,6.47
2022-09-15T07:58:29.686Z,7.07
2022-09-15T07:59:31.813Z,6.45
2022-09-15T08:00:33.498Z,7.38
2022-09-15T08:01:35.157Z,6.80
2022-09-15T08:02:36.783Z,8.27
2022-09-15T08:03:42.898Z,8.32
2022-09-15T08:04:44.656Z,6.88
2022-09-15T08:05:46.337Z,5.50
2022-09-15T08:06:47.997Z,5.70
2022-09-15T08:07:50.296Z,5.97
2022-09-15T08:08:56.290Z,6.32
2022-09-15T08:10:01.473Z,6.97
2022-09-15T08:11:09.336Z,8.32
2022-09-15T08:12:10.964Z,4.30
2022-09-15T08:13:12.555Z,6.10
2022-09-15T08:14:14.298Z,4.47
2022-09-15T08:15:15.876Z,5.38
2022-09-15T08:16:22.328Z,4.18
2022-09-15T08:17:24.047Z,5.00
2022-09-15T08:18:25.624Z,7.40
2022-09-15T08:19:31.301Z,4.05
2022-09-15T08:20:33.238Z,5.10
2022-09-15T08:21:34.898Z,5.10
2022-09-15T08:22:36.717Z,4.28
2022-09-15T08:23:38.439Z,3.37
2022-09-15T08:24:40.001Z,4.82
2022-09-15T08:25:41.669Z,4.93
2022-09-15T08:26:43.254Z,5.00
2022-09-15T08:27:44.835Z,4.22
2022-09-15T08:28:46.441Z,6.68
2022-09-15T08:29:48.181Z,5.38
2022-09-15T08:30:49.899Z,4.93
2022-09-15T08:31:51.509Z,4.53
2022-09-15T08:32:53.190Z,5.20
2022-09-15T08:33:55.440Z,3.87
2022-09-15T08:34:57.317Z,4.63
2022-09-15T08:36:03.717Z,3.03
2022-09-15T08:37:05.404Z,3.42
2022-09-15T08:38:07.037Z,7.28
2022-09-15T08:39:08.769Z,4.07
2022-09-15T08:40:32.003Z,5.03
2022-09-15T08:41:49.532Z,4.97
2022-09-15T08:42:53.125Z,5.07
2022-09-15T08:44:32.049Z,4.88
2022-09-15T08:45:48.684Z,3.23
2022-09-15T08:46:54.317Z,2.92
2022-09-15T08:48:00.225Z,4.35
2022-09-15T08:49:13.245Z,4.53
2022-09-15T08:50:28.291Z,4.88
2022-09-15T08:51:34.042Z,4.93
2022-09-15T08:52:57.996Z,4.60
2022-09-15T08:54:05.801Z,4.80
2022-09-15T08:55:13.420Z,3.47
2022-09-15T08:56:17.343Z,4.43
2022-09-15T08:57:20.077Z,4.33
2022-09-15T08:58:25.951Z,3.42
2022-09-15T08:59:32.522Z,3.40
2022-09-15T09:00:34.131Z,3.30
2022-09-15T09:01:54.090Z,7.18
2022-09-15T09:03:29.034Z,4.63
2022-09-15T09:04:58.337Z,3.75
2022-09-15T09:06:27.472Z,2.83
2022-09-15T09:07:39.414Z,3.45
2022-09-15T09:08:50.064Z,5.20
2022-09-15T09:10:33.146Z,4.07
2022-09-15T09:11:38.037Z,3.15
2022-09-15T09:12:52.320Z,3.83
2022-09-15T09:14:07.562Z,3.88
2022-09-15T09:15:33.106Z,3.25
2022-09-15T09:16:43.989Z,3.25
2022-09-15T09:18:19.604Z,4.63
2022-09-15T09:19:47.034Z,3.92
2022-09-15T09:20:59.410Z,5.15
2022-09-15T09:22:07.847Z,3.15
2022-09-15T09:23:13.003Z,4.30
2022-09-15T09:24:19.135Z,2.10
2022-09-15T09:25:27.741Z,2.55
2022-09-15T09:26:30.399Z,4.53
2022-09-15T09:27:36.152Z,4.45
2022-09-15T09:28:46.043Z,2.90
2022-09-15T09:29:52.028Z,5.70
2022-09-15T09:30:53.610Z,4.15
2022-09-15T09:31:55.218Z,5.28
2022-09-15T09:33:25.304Z,2.60
2022-09-15T09:34:42.086Z,5.57
2022-09-15T09:35:45.059Z,2.72
2022-09-15T09:36:52.592Z,4.30
2022-09-15T09:37:54.755Z,3.35
2022-09-15T09:38:56.387Z,4.45
2022-09-15T09:39:58.078Z,3.05
2022-09-15T09:41:02.355Z,3.05
2022-09-15T09:42:06.196Z,6.45
2022-09-15T09:43:08.153Z,6.22
2022-09-15T09:44:11.275Z,2.35
2022-09-15T09:45:13.872Z,4.47
2022-09-15T09:46:17.708Z,3.87
2022-09-15T09:47:20.048Z,5.13
2022-09-15T09:48:24.269Z,4.65
2022-09-15T09:49:27.378Z,5.07
2022-09-15T09:50:43.184Z,4.75
2022-09-15T09:51:49.045Z,5.38
2022-09-15T09:52:50.631Z,5.13
2022-09-15T09:53:53.634Z,4.13
2022-09-15T09:55:00.747Z,5.18
2022-09-15T09:56:24.833Z,5.00
2022-09-15T09:57:32.953Z,6.13
2022-09-15T09:58:34.564Z,6.68
2022-09-15T09:59:42.517Z,4.28
2022-09-15T10:00:44.115Z,4.88
2022-09-15T10:02:04.105Z,4.80
2022-09-15T10:03:27.081Z,3.70
2022-09-15T10:04:32.276Z,4.70
2022-09-15T10:05:33.902Z,5.05
2022-09-15T10:06:35.871Z,5.45
2022-09-15T10:07:40.107Z,7.17
2022-09-15T10:09:04.229Z,3.42
2022-09-15T10:10:06.466Z,6.55
2022-09-15T10:11:10.271Z,6.32
2022-09-15T10:12:18.878Z,6.10
2022-09-15T10:13:20.973Z,5.55
2022-09-15T10:14:25.416Z,6.50
2022-09-15T10:15:28.878Z,3.97
2022-09-15T10:16:30.687Z,3.83
2022-09-15T10:17:42.074Z,4.03
2022-09-15T10:18:43.882Z,5.93
2022-09-15T10:19:57.573Z,4.53
2022-09-15T10:20:59.639Z,3.53
2022-09-15T10:22:01.272Z,3.88
2022-09-15T10:23:07.611Z,7.68
2022-09-15T10:24:27.450Z,6.07
2022-09-15T10:25:49.309Z,4.70
2022-09-15T10:27:19.088Z,3.67
2022-09-15T10:28:23.190Z,8.27
2022-09-15T10:29:24.830Z,5.43
2022-09-15T10:30:27.126Z,3.87
2022-09-15T10:31:31.625Z,4.57
2022-09-15T10:32:33.370Z,5.15
2022-09-15T10:33:36.379Z,4.55
2022-09-15T10:34:37.950Z,3.85
2022-09-15T10:35:41.627Z,9.95
2022-09-15T10:36:43.212Z,4.55
2022-09-15T10:38:12.524Z,4.60
2022-09-15T10:39:26.619Z,4.53
2022-09-15T10:40:37.254Z,4.68
2022-09-15T10:41:43.998Z,4.27
2022-09-15T10:42:52.667Z,3.55
2022-09-15T10:44:02.085Z,4.18
2022-09-15T10:45:12.777Z,5.22
2022-09-15T10:46:25.506Z,5.88
2022-09-15T10:47:49.275Z,7.95
2022-09-15T10:49:11.036Z,6.97
2022-09-15T10:50:16.597Z,6.10
2022-09-15T10:51:23.975Z,7.45
2022-09-15T10:52:29.058Z,8.10
2022-09-15T10:54:00.671Z,5.83
2022-09-15T10:55:36.766Z,9.55
2022-09-15T10:56:44.691Z,11.25
2022-09-15T10:58:08.110Z,8.82
2022-09-15T10:59:15.905Z,6.80
2022-09-15T11:00:22.451Z,4.82
2022-09-15T11:01:29.917Z,8.68
2022-09-15T11:02:50.326Z,9.27
2022-09-15T11:04:01.011Z,7.35
2022-09-15T11:05:11.739Z,6.63
2022-09-15T11:06:41.308Z,7.77
2022-09-15T11:07:58.999Z,6.65
2022-09-15T11:09:06.956Z,9.68
2022-09-15T11:10:30.192Z,6.78
2022-09-15T11:11:39.211Z,8.07
2022-09-15T11:12:47.649Z,7.90
2022-09-15T11:14:17.488Z,9.10
2022-09-15T11:15:37.812Z,7.60
2022-09-15T11:16:49.699Z,7.35
2022-09-15T11:18:23.500Z,6.18
2022-09-15T11:19:48.289Z,7.60
2022-09-15T11:21:09.283Z,5.20
2022-09-15T11:22:49.475Z,8.52
2022-09-15T11:24:13.246Z,6.45
2022-09-15T11:25:20.617Z,10.70
2022-09-15T11:26:30.129Z,9.70
2022-09-15T11:27:35.471Z,6.18
2022-09-15T11:28:40.662Z,6.07
2022-09-15T11:30:01.288Z,14.88
2022-09-15T11:31:06.115Z,5.13
2022-09-15T11:32:11.831Z,5.60
2022-09-15T11:33:18.238Z,9.10
2022-09-15T11:34:21.022Z,6.97
2022-09-15T11:35:37.286Z,10.48
2022-09-15T11:36:52.120Z,10.00
2022-09-15T11:37:54.377Z,9.15
2022-09-15T11:39:24.778Z,11.02
2022-09-15T11:40:33.519Z,9.45
2022-09-15T11:41:49.765Z,6.70
2022-09-15T11:43:24.799Z,8.18
2022-09-15T11:44:33.192Z,8.83
2022-09-15T11:45:37.800Z,8.02
2022-09-15T11:47:02.823Z,12.70
2022-09-15T11:48:13.469Z,8.85
2022-09-15T11:49:23.408Z,8.82
2022-09-15T11:50:33.477Z,8.52
2022-09-15T11:51:39.282Z,6.95
2022-09-15T11:52:52.776Z,6.53
2022-09-15T11:53:57.825Z,7.07
2022-09-15T11:55:01.971Z,9.25
2022-09-15T11:56:39.055Z,9.27
2022-09-15T11:57:47.858Z,7.57
2022-09-15T11:58:58.100Z,5.00
2022-09-15T12:00:10.363Z,12.38
2022-09-15T12:01:11.912Z,10.30
2022-09-15T12:02:32.817Z,8.00
2022-09-15T12:03:38.013Z,8.25
2022-09-15T12:05:11.389Z,6.07
2022-09-15T12:06:34.925Z,10.07
2022-09-15T12:07:45.213Z,6.55
2022-09-15T12:08:55.309Z,5.30
2022-09-15T12:10:10.132Z,6.78
2022-09-15T12:11:18.598Z,8.50
2022-09-15T12:12:20.461Z,8.95
2022-09-15T12:13:24.231Z,6.13
2022-09-15T12:14:36.421Z,7.57
2022-09-15T12:15:38.005Z,5.13
2022-09-15T12:16:39.764Z,8.25
2022-09-15T12:18:06.668Z,6.57
2022-09-15T12:19:36.702Z,8.23
2022-09-15T12:20:43.379Z,5.93
2022-09-15T12:22:23.521Z,7.53
2022-09-15T12:23:29.325Z,7.30
2022-09-15T12:24:48.779Z,6.85
2022-09-15T12:26:14.706Z,6.43
2022-09-15T12:27:20.299Z,7.45
2022-09-15T12:28:21.948Z,10.07
2022-09-15T12:29:26.567Z,8.13
2022-09-15T12:30:39.541Z,5.97
2022-09-15T12:31:41.314Z,11.57
2022-09-15T12:32:43.022Z,6.60
2022-09-15T12:34:03.649Z,5.60
2022-09-15T12:35:17.686Z,10.32
2022-09-15T12:36:35.734Z,8.88
2022-09-15T12:37:47.536Z,4.40
2022-09-15T12:38:49.518Z,3.83
2022-09-15T12:39:51.369Z,5.03
2022-09-15T12:40:57.230Z,6.00
2022-09-15T12:42:01.570Z,3.85
2022-09-15T12:43:04.610Z,3.25
2022-09-15T12:44:16.041Z,4.63
2022-09-15T12:45:23.653Z,3.25
2022-09-15T12:46:25.259Z,7.25
2022-09-15T12:47:32.199Z,3.75
2022-09-15T12:48:34.410Z,3.13
2022-09-15T12:49:42.529Z,4.45
2022-09-15T12:50:44.544Z,3.00
2022-09-15T12:51:49.768Z,3.53
2022-09-15T12:52:54.413Z,4.25
2022-09-15T12:53:57.976Z,2.33
2022-09-15T12:55:01.649Z,7.13
2022-09-15T12:56:08.191Z,4.22
2022-09-15T12:57:20.178Z,8.23
2022-09-15T12:58:48.239Z,6.82
2022-09-15T12:59:50.005Z,4.35
2022-09-15T13:01:17.041Z,7.90
2022-09-15T13:02:46.847Z,5.90
2022-09-15T13:03:51.340Z,4.72
2022-09-15T13:04:54.391Z,4.15
2022-09-15T13:06:13.731Z,9.93
2022-09-15T13:07:15.322Z,4.07
2022-09-15T13:08:25.856Z,3.63
2022-09-15T13:09:27.987Z,4.57
2022-09-15T13:10:37.145Z,3.92
2022-09-15T13:11:40.162Z,4.45
2022-09-15T13:12:47.872Z,3.92
2022-09-15T13:14:06.674Z,4.47
2022-09-15T13:15:13.465Z,5.68
2022-09-15T13:16:41.287Z,4.97
2022-09-15T13:17:44.626Z,8.57
2022-09-15T13:18:46.383Z,5.80
2022-09-15T13:19:48.996Z,4.22
2022-09-15T13:20:58.122Z,6.15
2022-09-15T13:22:11.809Z,5.43
2022-09-15T13:23:13.607Z,3.83
2022-09-15T13:24:40.442Z,5.38
2022-09-15T13:25:42.109Z,4.38
2022-09-15T13:26:44.759Z,3.40
2022-09-15T13:27:48.241Z,3.15
2022-09-15T13:28:51.641Z,2.42
2022-09-15T13:30:03.085Z,3.37
2022-09-15T13:31:17.095Z,5.80
2022-09-15T13:32:43.709Z,6.30
2022-09-15T13:35:39.214Z,4.70
2022-09-15T13:38:53.740Z,4.68
2022-09-15T13:40:08.111Z,3.40
2022-09-15T13:41:24.814Z,5.55
2022-09-15T13:42:37.138Z,3.03
2022-09-15T13:43:44.412Z,3.40
2022-09-15T13:44:48.701Z,3.47
2022-09-15T13:45:59.261Z,4.47
2022-09-15T13:47:25.301Z,2.92
2022-09-15T13:48:59.028Z,2.97
2022-09-15T13:50:19.026Z,5.90
2022-09-15T13:51:30.272Z,3.22
2022-09-15T13:52:58.650Z,3.60
2022-09-15T13:54:05.606Z,2.70
2022-09-15T13:55:28.016Z,3.40
2022-09-15T13:56:35.720Z,4.40
2022-09-15T13:59:08.624Z,4.13
2022-09-15T14:00:26.927Z,5.55
2022-09-15T14:01:34.197Z,3.40
2022-09-15T14:02:35.977Z,2.95
2022-09-15T14:03:57.309Z,4.28
2022-09-15T14:04:58.955Z,3.63
2022-09-15T14:06:00.544Z,4.47
2022-09-15T14:07:02.334Z,4.43
2022-09-15T14:08:05.933Z,6.80
2022-09-15T14:09:31.214Z,3.10
2022-09-15T14:10:45.464Z,4.25
2022-09-15T14:11:48.464Z,4.15
2022-09-15T14:12:50.164Z,5.78
2022-09-15T14:13:51.808Z,4.90
2022-09-15T14:14:54.754Z,3.97
2022-09-15T14:16:01.281Z,4.15
2022-09-15T14:17:03.272Z,4.38
2022-09-15T14:18:05.469Z,5.35
2022-09-15T14:19:33.878Z,12.97
2022-09-15T14:20:35.699Z,5.38
2022-09-15T14:21:49.032Z,9.80
2022-09-15T14:22:53.652Z,15.65
2022-09-15T14:23:57.179Z,16.00
2022-09-15T14:25:00.364Z,15.88
2022-09-15T14:26:01.963Z,10.10
2022-09-15T14:27:08.712Z,12.60
2022-09-15T14:28:18.574Z,11.85
2022-09-15T14:29:21.020Z,12.63
2022-09-15T14:30:27.497Z,11.40
2022-09-15T14:31:34.663Z,10.73
2022-09-15T14:32:39.933Z,9.30
2022-09-15T14:33:41.519Z,14.25
2022-09-15T14:34:43.370Z,13.25
2022-09-15T14:35:45.057Z,13.02
2022-09-15T14:36:46.907Z,12.45
2022-09-15T14:37:56.770Z,11.07
2022-09-15T14:39:23.027Z,11.38
2022-09-15T14:40:28.226Z,15.13
2022-09-15T14:41:32.955Z,9.87
2022-09-15T14:42:36.389Z,13.35
2022-09-15T14:43:41.277Z,12.52
2022-09-15T14:46:15.190Z,9.55
2022-09-15T14:47:19.651Z,12.35
2022-09-15T14:48:26.775Z,10.82
2022-09-15T14:49:28.405Z,11.45
2022-09-15T14:50:32.871Z,12.35
2022-09-15T14:51:35.092Z,8.82